Cacouna, Canada
Current Conditions -  °F | °C
As of 8:53 AM on Tuesday 27 Jan 2015 (Local Time) from KFVE Reporting Station
Overcast Overcast  
Wind Chill: -19°   Ceiling: 11000
Heat Index:   Visibility: 10mi
Dew Point: -10°   Wind: 16mph
Humidity: 60%   Direction: 30°NNE
Pressure: 30.12"   Gusts: 24mph
Location:  47.91°N, 69.51°W
Report Text: KFVE 271353Z AUTO 03014G21KT 10SM OVC110 M17/M23 A3012 RMK AO2 SLP227 T11721233
Loading
Personal Weather Stations






























Interactive Weather Map New forecast layout! Learn more

10-Day Weather Forecast

Advertisements
Track Severe Weather on mobile